Time;durP1;ratioP1;P1;durP2;ratioP2;P2;SDS_P1;SDS_P2;PMS_P1;PMS_P2;Temp;Humidity;BMP_temperature;BMP_pressure;BME280_temperature;BME280_humidity;BME280_pressure;Samples;Min_cycle;Max_cycle;Signal;HPM_P1;HPM_P2
2022/11/02 00:01:42;;;;;;;11.60;2.43;;;13.20;99.90;;;;;;5044196;28;20392;-70
2022/11/02 00:04:09;;;;;;;10.83;2.90;;;13.10;99.90;;;;;;5036044;28;20213;-69
2022/11/02 00:06:36;;;;;;;10.07;2.70;;;13.20;99.90;;;;;;5043735;28;20244;-71
2022/11/02 00:09:03;;;;;;;10.23;2.40;;;13.20;99.90;;;;;;5050046;28;20645;-71
2022/11/02 00:11:30;;;;;;;8.63;2.50;;;13.20;99.90;;;;;;5047980;28;20306;-71
2022/11/02 00:13:57;;;;;;;12.10;2.83;;;13.20;99.90;;;;;;5049349;28;20883;-70
2022/11/02 00:16:27;;;;;;;14.40;2.87;;;13.20;99.90;;;;;;5051872;28;20236;-71
2022/11/02 00:18:58;;;;;;;16.53;2.77;;;13.10;99.90;;;;;;5034633;28;20270;-69
2022/11/02 00:21:27;;;;;;;11.93;3.10;;;13.10;99.90;;;;;;5046565;28;20213;-71
2022/11/02 00:23:56;;;;;;;14.33;3.00;;;13.20;99.90;;;;;;5045209;28;21004;-70
2022/11/02 00:26:24;;;;;;;14.67;3.57;;;13.20;99.90;;;;;;5042978;28;20224;-70
2022/11/02 00:28:51;;;;;;;8.50;2.50;;;13.20;99.90;;;;;;5042702;28;20262;-72
2022/11/02 00:31:18;;;;;;;9.57;2.67;;;13.30;99.90;;;;;;5045415;28;20212;-70
2022/11/02 00:33:45;;;;;;;7.83;2.20;;;13.30;99.90;;;;;;5049647;28;20485;-70
2022/11/02 00:36:12;;;;;;;6.80;2.20;;;13.40;99.90;;;;;;5041884;28;20729;-70
2022/11/02 00:38:39;;;;;;;11.67;2.50;;;13.40;99.90;;;;;;5043914;28;20239;-71
2022/11/02 00:41:06;;;;;;;9.47;2.50;;;13.40;99.90;;;;;;5050355;28;20702;-71
2022/11/02 00:43:33;;;;;;;9.93;2.23;;;13.50;99.90;;;;;;5045815;28;20223;-71
2022/11/02 00:46:00;;;;;;;15.17;2.43;;;13.50;99.90;;;;;;5051054;28;20232;-71
2022/11/02 00:48:29;;;;;;;11.87;2.37;;;13.60;99.90;;;;;;5048184;28;20308;-70
2022/11/02 00:50:56;;;;;;;11.60;2.00;;;13.50;99.90;;;;;;5042117;28;20296;-70
2022/11/02 00:53:23;;;;;;;9.83;2.07;;;13.50;99.90;;;;;;5042577;28;20286;-70
2022/11/02 00:55:50;;;;;;;7.37;2.20;;;13.50;99.90;;;;;;5048285;28;20197;-72
2022/11/02 00:58:17;;;;;;;10.50;2.53;;;13.50;99.90;;;;;;5039989;28;20229;-70
2022/11/02 01:00:43;;;;;;;8.00;2.10;;;13.50;99.90;;;;;;5031921;28;20309;-70
2022/11/02 01:03:10;;;;;;;8.93;1.97;;;13.50;99.90;;;;;;5044289;28;20280;-70
2022/11/02 01:05:37;;;;;;;16.07;2.40;;;13.50;99.90;;;;;;5044071;28;20201;-70
2022/11/02 01:08:04;;;;;;;9.80;2.60;;;13.50;99.90;;;;;;5028721;28;20297;-70
2022/11/02 01:10:31;;;;;;;7.30;2.27;;;13.50;99.90;;;;;;5047239;28;20200;-70
2022/11/02 01:13:00;;;;;;;5.87;2.40;;;13.50;99.90;;;;;;5040667;28;20595;-70
2022/11/02 01:15:27;;;;;;;12.30;2.20;;;13.50;99.90;;;;;;5048985;28;20716;-70
2022/11/02 01:17:54;;;;;;;6.13;2.00;;;13.50;99.90;;;;;;5026789;28;20309;-71
2022/11/02 01:20:22;;;;;;;10.10;2.47;;;13.40;99.90;;;;;;5045921;28;20276;-70
2022/11/02 01:22:48;;;;;;;11.33;2.50;;;13.40;99.90;;;;;;5042503;28;20224;-69
2022/11/02 01:25:15;;;;;;;6.53;1.87;;;13.40;99.90;;;;;;5048729;28;20232;-71
2022/11/02 01:27:42;;;;;;;11.57;2.77;;;13.40;99.90;;;;;;5047223;28;20623;-71
2022/11/02 01:30:09;;;;;;;10.80;2.37;;;13.40;99.90;;;;;;5044480;28;21097;-70
2022/11/02 01:32:36;;;;;;;10.13;2.00;;;13.40;99.90;;;;;;5023496;28;20221;-70
2022/11/02 01:35:03;;;;;;;12.13;2.13;;;13.40;99.90;;;;;;5048509;28;20228;-70
2022/11/02 01:37:30;;;;;;;5.17;1.70;;;13.30;99.90;;;;;;5043700;28;20261;-70
2022/11/02 01:39:57;;;;;;;8.37;1.93;;;13.30;99.90;;;;;;5045894;28;20212;-70
2022/11/02 01:42:25;;;;;;;8.80;1.90;;;13.30;99.90;;;;;;5045234;28;20306;-70
2022/11/02 01:44:52;;;;;;;10.20;2.47;;;13.30;99.90;;;;;;5033634;28;20208;-71
2022/11/02 01:47:36;;;;;;;5.60;1.90;;;13.20;99.90;;;;;;5042190;28;20252;-70
2022/11/02 01:50:11;;;;;;;5.63;1.50;;;13.20;99.90;;;;;;5038951;28;20236;-70
2022/11/02 01:52:38;;;;;;;6.90;1.83;;;13.00;99.90;;;;;;5046217;28;20313;-70
2022/11/02 01:55:21;;;;;;;7.97;1.73;;;12.90;99.90;;;;;;5041413;28;20240;-71
2022/11/02 01:58:10;;;;;;;5.07;1.70;;;12.70;99.90;;;;;;5046533;28;20311;-70
2022/11/02 02:00:38;;;;;;;4.43;1.40;;;12.60;99.90;;;;;;5044823;28;20212;-72
2022/11/02 02:03:15;;;;;;;7.23;1.50;;;12.40;99.90;;;;;;5043690;28;20284;-71
2022/11/02 02:05:46;;;;;;;4.17;1.23;;;12.30;99.90;;;;;;5046315;28;20582;-72
2022/11/02 02:08:16;;;;;;;6.43;1.60;;;12.30;99.90;;;;;;5044394;28;20243;-71
2022/11/02 02:10:43;;;;;;;7.53;2.17;;;12.20;99.90;;;;;;5047051;28;20197;-70
2022/11/02 02:13:11;;;;;;;5.43;1.17;;;12.10;99.90;;;;;;5043606;28;20752;-69
2022/11/02 02:15:51;;;;;;;6.67;1.13;;;12.00;99.90;;;;;;5025961;28;20240;-71
2022/11/02 02:18:43;;;;;;;6.30;1.20;;;11.90;99.90;;;;;;5049248;28;20231;-71
2022/11/02 02:21:28;;;;;;;3.50;1.10;;;11.90;99.90;;;;;;5043758;28;20313;-71
2022/11/02 02:24:14;;;;;;;4.17;1.23;;;11.80;99.90;;;;;;5029501;28;20288;-71
2022/11/02 02:27:35;;;;;;;4.97;1.40;;;11.70;99.90;;;;;;5042039;28;20229;-71
2022/11/02 02:30:04;;;;;;;4.43;1.27;;;11.70;99.90;;;;;;4989638;28;20198;-70
2022/11/02 02:32:55;;;;;;;2.80;1.00;;;11.60;99.90;;;;;;5038052;28;20234;-71
2022/11/02 02:35:31;;;;;;;5.23;0.90;;;11.50;99.90;;;;;;5046489;28;20508;-71
2022/11/02 02:38:03;;;;;;;3.73;0.90;;;11.50;99.90;;;;;;5046128;28;20236;-71
2022/11/02 02:40:51;;;;;;;5.33;1.03;;;11.40;99.90;;;;;;5047457;28;20201;-70
2022/11/02 02:43:27;;;;;;;4.53;1.43;;;11.50;99.90;;;;;;5046397;28;20205;-71
2022/11/02 02:46:09;;;;;;;5.17;1.00;;;11.40;99.90;;;;;;5039750;28;20203;-71
2022/11/02 02:48:39;;;;;;;8.57;1.67;;;11.30;99.90;;;;;;5033951;28;20204;-71
2022/11/02 02:51:13;;;;;;;8.50;1.63;;;11.30;99.90;;;;;;5049282;28;20304;-71
2022/11/02 02:54:07;;;;;;;7.00;1.73;;;11.20;99.90;;;;;;5029933;28;20256;-71
2022/11/02 02:56:46;;;;;;;9.87;2.63;;;11.10;99.90;;;;;;5040191;28;20243;-70
2022/11/02 02:59:36;;;;;;;7.10;1.33;;;11.10;99.90;;;;;;5043079;28;20322;-71
2022/11/02 03:02:06;;;;;;;3.70;1.77;;;11.10;99.90;;;;;;5039856;28;20209;-70
2022/11/02 03:04:39;;;;;;;8.93;1.77;;;11.10;99.90;;;;;;5046880;28;20327;-71
2022/11/02 03:07:12;;;;;;;5.17;2.80;;;11.10;99.90;;;;;;5037101;28;20223;-70
2022/11/02 03:09:46;;;;;;;7.47;2.07;;;11.10;99.90;;;;;;5042439;28;20288;-71
2022/11/02 03:12:37;;;;;;;6.93;2.23;;;11.10;99.90;;;;;;5040752;28;20917;-71
2022/11/02 03:15:18;;;;;;;5.87;2.20;;;11.10;99.90;;;;;;5041351;28;20573;-71
2022/11/02 03:18:16;;;;;;;6.60;2.73;;;11.10;99.90;;;;;;5040310;28;20212;-71
2022/11/02 03:20:56;;;;;;;6.67;2.40;;;11.10;99.90;;;;;;5042888;28;20209;-71
2022/11/02 03:23:36;;;;;;;10.97;2.20;;;11.10;99.90;;;;;;5043566;28;20287;-72
2022/11/02 03:26:06;;;;;;;7.13;2.13;;;11.20;99.90;;;;;;5040409;28;20634;-71
2022/11/02 03:28:33;;;;;;;6.77;2.20;;;11.20;99.90;;;;;;5044326;28;20255;-72
2022/11/02 03:31:19;;;;;;;8.97;2.20;;;11.30;99.90;;;;;;5039463;28;20205;-70
2022/11/02 03:34:13;;;;;;;5.87;2.63;;;11.30;99.90;;;;;;5035241;28;20316;-72
2022/11/02 03:36:53;;;;;;;4.97;1.77;;;11.30;99.90;;;;;;5047234;28;20247;-70
2022/11/02 03:39:29;;;;;;;9.10;2.30;;;11.30;99.90;;;;;;5034688;28;20204;-70
2022/11/02 03:42:02;;;;;;;6.30;1.90;;;11.30;99.90;;;;;;5046356;28;20292;-72
2022/11/02 03:44:32;;;;;;;11.83;2.70;;;11.30;99.90;;;;;;5046518;28;20319;-71
2022/11/02 03:47:01;;;;;;;11.30;2.50;;;11.30;99.90;;;;;;5044582;28;20213;-70
2022/11/02 03:49:30;;;;;;;4.63;1.70;;;11.30;99.90;;;;;;5047190;28;20205;-71
2022/11/02 03:52:02;;;;;;;8.60;1.90;;;11.20;99.90;;;;;;5032578;28;20318;-71
2022/11/02 03:54:43;;;;;;;9.00;1.90;;;11.20;99.90;;;;;;5045606;28;20201;-72
2022/11/02 03:57:20;;;;;;;7.73;1.70;;;11.20;99.90;;;;;;5023001;28;20540;-71
2022/11/02 03:59:47;;;;;;;8.23;1.90;;;11.20;99.90;;;;;;5050905;28;20902;-70
2022/11/02 04:02:15;;;;;;;9.47;2.40;;;11.30;99.90;;;;;;5043840;28;20205;-70
2022/11/02 04:04:50;;;;;;;8.93;2.00;;;11.30;99.90;;;;;;5032012;28;20201;-70
2022/11/02 04:08:19;;;;;;;14.00;2.70;;;11.30;99.90;;;;;;5047034;28;20299;-71
2022/11/02 04:10:24;;;;;;;6.13;2.23;;;11.30;99.90;;;;;;5034131;28;20197;-70
2022/11/02 04:15:36;;;;;;;10.80;2.30;;;11.40;99.90;;;;;;5045309;28;20319;-72
2022/11/02 04:20:52;;;;;;;14.60;2.20;;;11.40;99.90;;;;;;5043883;28;20711;-70
2022/11/02 04:26:05;;;;;;;7.70;2.10;;;11.50;99.90;;;;;;5044414;28;20213;-70
2022/11/02 04:28:31;;;;;;;11.37;2.43;;;11.50;99.90;;;;;;5032251;28;20299;-70
2022/11/02 04:30:59;;;;;;;10.30;2.33;;;11.50;99.90;;;;;;5049973;28;20208;-71
2022/11/02 04:33:32;;;;;;;10.00;2.83;;;11.60;99.90;;;;;;5030438;28;20328;-71
2022/11/02 04:36:06;;;;;;;10.53;2.33;;;11.60;99.90;;;;;;5028114;28;20651;-71
2022/11/02 04:38:39;;;;;;;9.00;2.40;;;11.70;99.90;;;;;;5028548;28;20205;-70
2022/11/02 04:43:56;;;;;;;14.00;2.13;;;11.70;99.90;;;;;;5043765;28;20399;-71
2022/11/02 04:46:25;;;;;;;12.30;2.77;;;11.80;99.90;;;;;;5044664;28;20673;-69
2022/11/02 04:48:52;;;;;;;10.67;2.53;;;11.80;99.90;;;;;;5041083;28;20205;-69
2022/11/02 04:51:20;;;;;;;12.40;2.63;;;11.80;99.90;;;;;;5046932;28;20519;-70
2022/11/02 04:53:48;;;;;;;9.27;2.20;;;11.80;99.90;;;;;;5045916;28;20255;-71
2022/11/02 04:56:15;;;;;;;10.43;2.20;;;11.90;99.90;;;;;;5045450;28;20194;-72
2022/11/02 04:58:42;;;;;;;8.13;2.23;;;11.90;99.90;;;;;;5045679;28;20652;-71
2022/11/02 05:01:14;;;;;;;14.40;3.43;;;12.00;99.90;;;;;;5044649;28;20302;-70
2022/11/02 05:03:41;;;;;;;15.10;3.07;;;12.00;99.90;;;;;;5049863;28;20213;-70
2022/11/02 05:06:09;;;;;;;10.53;2.60;;;12.10;99.90;;;;;;5024345;28;20230;-71
2022/11/02 05:08:37;;;;;;;12.70;3.10;;;12.20;99.90;;;;;;5047083;28;20300;-71
2022/11/02 05:11:04;;;;;;;11.47;2.53;;;12.20;99.90;;;;;;5041937;28;20203;-70
2022/11/02 05:13:31;;;;;;;14.23;2.53;;;12.10;99.90;;;;;;5047442;28;20239;-70
2022/11/02 05:15:58;;;;;;;15.43;3.27;;;12.20;99.90;;;;;;5041662;28;20662;-71
2022/11/02 05:18:27;;;;;;;11.17;2.53;;;12.10;99.90;;;;;;5049370;28;20226;-70
2022/11/02 05:20:56;;;;;;;13.30;3.03;;;12.10;99.90;;;;;;5043772;28;20217;-73
2022/11/02 05:23:23;;;;;;;10.17;2.70;;;12.10;99.90;;;;;;5046557;28;20225;-71
2022/11/02 05:26:01;;;;;;;12.13;2.57;;;12.10;99.90;;;;;;5043334;28;20237;-71
2022/11/02 05:28:29;;;;;;;12.43;3.17;;;12.20;99.90;;;;;;5038302;28;20410;-69
2022/11/02 05:31:00;;;;;;;15.43;2.70;;;12.20;99.90;;;;;;5046370;28;20301;-71
2022/11/02 05:33:30;;;;;;;11.73;3.13;;;12.30;99.90;;;;;;5043987;28;20312;-71
2022/11/02 05:35:58;;;;;;;11.97;2.63;;;12.30;99.90;;;;;;5043375;28;20777;-70
2022/11/02 05:38:26;;;;;;;10.87;3.13;;;12.40;99.90;;;;;;5044031;28;20677;-70
2022/11/02 05:40:55;;;;;;;13.17;2.70;;;12.40;99.90;;;;;;5043754;28;20209;-72
2022/11/02 05:43:23;;;;;;;11.67;2.53;;;12.50;99.90;;;;;;5039416;28;20210;-71
2022/11/02 05:45:55;;;;;;;14.87;3.00;;;12.40;99.90;;;;;;5047806;28;20328;-70
2022/11/02 05:48:22;;;;;;;14.03;3.40;;;12.40;99.90;;;;;;5047931;28;20204;-71
2022/11/02 05:50:56;;;;;;;12.07;3.67;;;12.40;99.90;;;;;;5042045;28;20224;-70
2022/11/02 05:53:24;;;;;;;11.37;3.10;;;12.30;99.90;;;;;;5045650;28;20772;-71
2022/11/02 05:55:51;;;;;;;13.37;2.87;;;12.20;99.90;;;;;;5045156;28;20296;-72
2022/11/02 05:58:17;;;;;;;11.63;3.10;;;12.20;99.90;;;;;;5037831;28;20294;-70
2022/11/02 06:00:44;;;;;;;13.83;3.97;;;12.20;99.90;;;;;;5045307;28;20209;-70
2022/11/02 06:03:11;;;;;;;11.37;2.73;;;12.10;99.90;;;;;;5043521;28;20296;-71
2022/11/02 06:05:37;;;;;;;13.50;3.53;;;12.20;99.90;;;;;;5046929;28;20243;-70
2022/11/02 06:08:04;;;;;;;13.00;3.27;;;12.10;99.90;;;;;;5045957;28;20194;-70
2022/11/02 06:10:31;;;;;;;17.63;4.10;;;12.00;99.90;;;;;;5048012;28;20355;-69
2022/11/02 06:13:00;;;;;;;15.57;2.80;;;12.10;99.90;;;;;;5041236;28;20212;-71
2022/11/02 06:15:28;;;;;;;13.57;3.00;;;12.00;99.90;;;;;;5047443;28;20225;-71
2022/11/02 06:17:55;;;;;;;15.20;3.20;;;12.00;99.90;;;;;;5022466;28;20306;-71
2022/11/02 06:20:22;;;;;;;13.00;2.23;;;11.90;99.90;;;;;;5047008;28;20301;-71
2022/11/02 06:22:49;;;;;;;20.87;3.10;;;12.00;99.90;;;;;;5043658;28;20404;-70
2022/11/02 06:25:16;;;;;;;12.30;3.33;;;12.00;99.90;;;;;;5045588;28;20209;-70
2022/11/02 06:27:53;;;;;;;10.70;2.73;;;12.00;99.90;;;;;;5044401;28;20259;-70
2022/11/02 06:30:21;;;;;;;11.73;3.13;;;11.90;99.90;;;;;;5047279;28;20197;-70
2022/11/02 06:32:49;;;;;;;13.07;3.40;;;11.90;99.90;;;;;;5042006;28;20289;-69
2022/11/02 06:35:17;;;;;;;13.63;2.90;;;11.90;99.90;;;;;;5050180;28;20232;-70
2022/11/02 06:37:44;;;;;;;15.10;2.67;;;11.90;99.90;;;;;;5042900;28;20218;-70
2022/11/02 06:40:12;;;;;;;10.33;2.63;;;12.00;99.90;;;;;;5049398;28;20672;-71
2022/11/02 06:42:40;;;;;;;12.27;2.60;;;12.00;99.90;;;;;;5039969;28;20583;-72
2022/11/02 06:45:22;;;;;;;7.93;2.47;;;12.00;99.90;;;;;;5047630;28;20278;-71
2022/11/02 06:47:49;;;;;;;12.60;2.60;;;12.00;99.90;;;;;;5041124;28;20216;-70
2022/11/02 06:50:16;;;;;;;11.27;2.90;;;12.00;99.90;;;;;;5045964;28;20231;-70
2022/11/02 06:52:45;;;;;;;12.33;3.40;;;12.00;99.90;;;;;;5041456;28;20773;-72
2022/11/02 06:55:13;;;;;;;12.73;2.30;;;12.00;99.90;;;;;;5044027;28;20261;-70
2022/11/02 06:57:41;;;;;;;15.53;2.17;;;12.00;99.90;;;;;;5046024;28;20229;-70
2022/11/02 07:00:15;;;;;;;12.47;2.50;;;11.90;99.90;;;;;;5044384;28;20208;-71
2022/11/02 07:03:05;;;;;;;11.60;2.40;;;11.90;99.90;;;;;;5039522;28;20224;-71
2022/11/02 07:05:33;;;;;;;16.00;2.90;;;11.90;99.90;;;;;;5048789;28;20626;-71
2022/11/02 07:08:01;;;;;;;15.63;2.80;;;11.90;99.90;;;;;;5047490;28;20438;-71
2022/11/02 07:10:31;;;;;;;19.07;3.80;;;12.10;99.90;;;;;;5047225;28;20197;-72
2022/11/02 07:13:04;;;;;;;14.00;2.73;;;12.10;99.90;;;;;;5043505;28;20205;-72
2022/11/02 07:15:31;;;;;;;9.53;2.50;;;12.10;99.90;;;;;;5042234;28;20251;-73
2022/11/02 07:17:58;;;;;;;12.33;2.23;;;12.00;99.90;;;;;;5050611;28;20209;-72
2022/11/02 07:20:25;;;;;;;16.97;2.10;;;12.10;99.90;;;;;;5053374;28;20200;-72
2022/11/02 07:22:54;;;;;;;10.40;2.70;;;12.10;99.90;;;;;;5045780;28;20213;-74
2022/11/02 07:25:21;;;;;;;13.13;2.77;;;12.10;99.90;;;;;;5041696;28;20323;-71
2022/11/02 07:27:48;;;;;;;11.93;2.10;;;12.10;99.90;;;;;;5049120;28;20309;-71
2022/11/02 07:30:15;;;;;;;12.17;2.20;;;12.30;99.90;;;;;;5052197;28;20681;-72
2022/11/02 07:32:46;;;;;;;18.83;2.93;;;12.30;99.90;;;;;;5027266;28;20225;-71
2022/11/02 07:35:15;;;;;;;11.70;2.10;;;12.30;99.90;;;;;;5046456;28;20310;-71
2022/11/02 07:37:42;;;;;;;11.87;2.40;;;12.30;99.90;;;;;;5033028;28;20209;-72
2022/11/02 07:40:10;;;;;;;19.20;2.63;;;12.30;99.90;;;;;;5054106;28;20675;-71
2022/11/02 07:42:47;;;;;;;14.23;3.37;;;12.40;99.90;;;;;;5030210;28;20218;-71
2022/11/02 07:45:14;;;;;;;12.87;3.20;;;12.70;99.90;;;;;;5040622;28;20309;-71
2022/11/02 07:47:45;;;;;;;12.03;2.63;;;12.40;99.90;;;;;;5043796;28;20646;-71
2022/11/02 07:50:13;;;;;;;7.57;2.53;;;12.50;99.90;;;;;;5048731;28;20277;-71
2022/11/02 07:52:54;;;;;;;6.30;1.87;;;12.60;99.90;;;;;;5050299;28;20707;-71
2022/11/02 07:55:23;;;;;;;10.77;2.17;;;12.60;99.90;;;;;;5046149;28;20375;-71
2022/11/02 07:57:57;;;;;;;11.97;2.60;;;12.80;99.90;;;;;;5042422;28;20220;-72
2022/11/02 08:00:26;;;;;;;12.00;2.10;;;12.50;99.90;;;;;;5044783;28;20283;-71
2022/11/02 08:02:57;;;;;;;11.47;2.27;;;12.50;99.90;;;;;;5054141;28;20201;-71
2022/11/02 08:05:24;;;;;;;15.70;2.10;;;12.50;99.90;;;;;;5048767;28;20231;-71
2022/11/02 08:08:02;;;;;;;12.73;1.97;;;12.50;99.90;;;;;;5045039;28;20369;-72
2022/11/02 08:10:31;;;;;;;10.93;2.30;;;12.40;99.90;;;;;;5046402;28;20200;-72
2022/11/02 08:13:06;;;;;;;7.83;1.80;;;12.40;99.90;;;;;;5045828;28;20209;-71
2022/11/02 08:15:33;;;;;;;13.10;2.20;;;12.40;99.90;;;;;;5048947;28;20251;-71
2022/11/02 08:18:15;;;;;;;12.67;2.43;;;12.30;99.90;;;;;;5042289;28;20256;-72
2022/11/02 08:20:42;;;;;;;9.63;2.10;;;12.40;99.90;;;;;;5029099;28;20297;-72
2022/11/02 08:23:10;;;;;;;10.50;1.87;;;12.40;99.90;;;;;;5044091;28;20693;-72
2022/11/02 08:25:38;;;;;;;9.17;2.00;;;12.30;99.90;;;;;;5033376;28;20220;-73
2022/11/02 08:28:07;;;;;;;13.90;2.27;;;12.60;99.90;;;;;;5025964;28;20285;-73
2022/11/02 08:30:36;;;;;;;12.97;2.27;;;12.40;99.90;;;;;;5053251;28;20207;-71
2022/11/02 08:33:11;;;;;;;9.70;2.60;;;12.40;99.90;;;;;;5041503;28;20205;-72
2022/11/02 08:35:41;;;;;;;14.10;2.37;;;12.50;99.90;;;;;;5026854;28;20225;-72
2022/11/02 08:38:08;;;;;;;10.40;1.90;;;12.50;99.90;;;;;;5040625;28;20201;-71
2022/11/02 08:40:36;;;;;;;13.70;2.60;;;12.40;99.90;;;;;;5046105;28;20300;-72
2022/11/02 08:43:07;;;;;;;9.93;2.37;;;12.40;99.90;;;;;;5049956;28;20300;-71
2022/11/02 08:45:36;;;;;;;12.13;2.00;;;12.40;99.90;;;;;;5048520;28;20721;-72
2022/11/02 08:48:23;;;;;;;10.27;2.10;;;12.40;99.90;;;;;;5047625;28;20208;-72
2022/11/02 08:50:50;;;;;;;16.37;3.07;;;12.50;99.90;;;;;;5042948;28;20296;-72
2022/11/02 08:53:17;;;;;;;10.37;1.93;;;12.50;99.90;;;;;;5053064;28;20244;-71
2022/11/02 08:55:44;;;;;;;9.47;2.10;;;12.50;99.90;;;;;;5043772;28;20235;-70
2022/11/02 08:58:10;;;;;;;11.93;2.47;;;12.50;99.90;;;;;;5045191;28;20196;-71
2022/11/02 09:00:37;;;;;;;10.83;1.80;;;12.50;99.90;;;;;;5044633;28;20210;-72
2022/11/02 09:03:06;;;;;;;9.03;1.83;;;12.80;99.90;;;;;;5046440;28;20251;-71
2022/11/02 09:05:36;;;;;;;11.60;2.30;;;12.80;99.90;;;;;;5031135;28;20215;-71
2022/11/02 09:08:05;;;;;;;12.37;3.00;;;12.60;99.90;;;;;;5043931;28;20608;-71
2022/11/02 09:10:34;;;;;;;10.00;1.97;;;12.60;99.90;;;;;;5030923;28;20201;-71
2022/11/02 09:13:03;;;;;;;12.17;2.07;;;12.60;99.90;;;;;;5046040;28;20241;-72
2022/11/02 09:15:33;;;;;;;15.03;2.43;;;12.70;99.90;;;;;;5030686;28;20245;-71
2022/11/02 09:18:00;;;;;;;9.57;2.30;;;12.80;99.90;;;;;;5022502;28;20220;-71
2022/11/02 09:20:27;;;;;;;13.20;3.27;;;12.80;99.90;;;;;;5047905;28;20251;-71
2022/11/02 09:22:53;;;;;;;8.77;1.80;;;12.80;99.90;;;;;;5044023;28;20252;-71
2022/11/02 09:25:20;;;;;;;11.30;2.33;;;12.80;99.90;;;;;;5043042;28;20218;-70
2022/11/02 09:27:55;;;;;;;7.27;2.20;;;13.00;99.90;;;;;;5049827;28;20291;-71
2022/11/02 09:30:23;;;;;;;11.43;2.33;;;12.90;99.90;;;;;;5030188;28;20250;-72
2022/11/02 09:32:57;;;;;;;10.23;2.20;;;12.90;99.90;;;;;;5046634;28;20239;-71
2022/11/02 09:35:26;;;;;;;11.37;3.27;;;13.10;99.90;;;;;;5042074;28;20235;-71
2022/11/02 09:37:53;;;;;;;11.17;2.30;;;13.00;99.90;;;;;;5049236;28;20224;-73
2022/11/02 09:40:22;;;;;;;10.20;2.00;;;13.00;99.90;;;;;;5042493;28;20666;-71
2022/11/02 09:43:08;;;;;;;7.40;2.03;;;13.10;99.90;;;;;;5042981;28;20206;-71
2022/11/02 09:45:57;;;;;;;8.53;1.97;;;13.10;99.90;;;;;;5046396;28;20212;-71
2022/11/02 09:48:33;;;;;;;8.70;1.90;;;13.10;99.90;;;;;;5024040;28;20731;-71
2022/11/02 09:51:08;;;;;;;13.53;2.13;;;13.00;99.90;;;;;;5044388;28;20748;-71
2022/11/02 09:53:53;;;;;;;9.83;2.20;;;13.10;99.90;;;;;;5042201;28;20247;-72
2022/11/02 09:56:20;;;;;;;11.17;2.00;;;13.20;99.90;;;;;;5047755;28;20649;-70
2022/11/02 09:58:55;;;;;;;10.27;1.73;;;13.00;99.90;;;;;;5044158;28;20578;-72
2022/11/02 10:01:56;;;;;;;9.07;2.63;;;13.10;99.90;;;;;;5044373;28;20675;-70
2022/11/02 10:04:34;;;;;;;13.20;2.30;;;13.10;99.90;;;;;;5046459;28;20250;-71
2022/11/02 10:07:21;;;;;;;7.53;1.70;;;13.10;99.90;;;;;;5040809;28;20213;-71
2022/11/02 10:10:12;;;;;;;14.77;2.57;;;13.20;99.90;;;;;;5040211;28;20197;-71
2022/11/02 10:13:20;;;;;;;12.30;2.33;;;13.10;99.90;;;;;;5044011;28;20296;-72
2022/11/02 10:15:53;;;;;;;9.00;1.80;;;13.20;99.90;;;;;;4966886;28;20658;-71
2022/11/02 10:18:25;;;;;;;9.60;2.20;;;13.20;99.90;;;;;;5008630;28;20778;-71
2022/11/02 10:20:57;;;;;;;10.93;2.13;;;13.20;99.90;;;;;;5026764;28;20267;-72
2022/11/02 10:23:47;;;;;;;8.77;2.13;;;13.30;99.90;;;;;;5043687;28;20248;-72
2022/11/02 10:26:22;;;;;;;8.10;2.30;;;13.30;99.90;;;;;;5033596;28;20284;-72
2022/11/02 10:28:59;;;;;;;9.50;1.93;;;13.30;99.90;;;;;;5027177;28;20205;-71
2022/11/02 10:31:28;;;;;;;10.93;2.07;;;13.40;99.90;;;;;;5046027;28;20284;-71
2022/11/02 10:33:59;;;;;;;13.53;2.27;;;13.40;99.90;;;;;;5041028;28;20833;-71
2022/11/02 10:36:57;;;;;;;10.17;2.63;;;13.40;99.90;;;;;;5042859;28;20228;-71
2022/11/02 10:39:52;;;;;;;9.87;1.90;;;13.40;99.90;;;;;;5047217;28;20212;-71
2022/11/02 10:42:46;;;;;;;9.37;2.10;;;13.50;99.90;;;;;;5047128;28;20245;-72
2022/11/02 10:45:19;;;;;;;9.63;2.20;;;13.50;99.90;;;;;;5041441;28;20234;-72
2022/11/02 10:48:19;;;;;;;9.93;3.30;;;13.60;99.90;;;;;;5029399;28;20585;-72
2022/11/02 10:51:14;;;;;;;8.03;1.90;;;13.60;99.90;;;;;;5046931;28;20204;-73
2022/11/02 10:53:46;;;;;;;10.37;2.00;;;13.70;99.90;;;;;;5044177;28;20390;-72
2022/11/02 10:56:28;;;;;;;8.13;2.00;;;13.70;99.90;;;;;;5040315;28;20243;-72
2022/11/02 10:58:59;;;;;;;11.97;2.03;;;13.70;99.90;;;;;;5020571;28;20209;-72
2022/11/02 11:01:27;;;;;;;6.27;1.60;;;13.80;99.90;;;;;;5027398;28;20236;-72
2022/11/02 11:03:58;;;;;;;5.73;1.93;;;13.80;99.90;;;;;;5046148;28;20609;-71
2022/11/02 11:06:38;;;;;;;8.80;1.80;;;13.80;99.90;;;;;;5044683;28;20248;-72
2022/11/02 11:09:18;;;;;;;12.57;2.47;;;13.80;99.90;;;;;;5028466;28;20201;-73
2022/11/02 11:12:01;;;;;;;10.17;2.57;;;13.80;99.90;;;;;;5022970;28;20291;-72
2022/11/02 11:14:31;;;;;;;11.07;1.80;;;13.90;99.90;;;;;;5040960;28;20279;-73
2022/11/02 11:17:26;;;;;;;12.73;1.90;;;13.90;99.90;;;;;;5047076;28;20684;-74
2022/11/02 11:20:36;;;;;;;7.07;1.60;;;14.10;99.90;;;;;;5044005;28;20212;-75
2022/11/02 11:23:22;;;;;;;7.60;1.60;;;14.20;99.90;;;;;;5045719;28;20197;-75
2022/11/02 11:26:30;;;;;;;8.57;2.17;;;14.40;99.90;;;;;;5043277;28;20209;-73
2022/11/02 11:28:58;;;;;;;8.40;2.00;;;14.50;99.90;;;;;;5044770;28;20255;-73
2022/11/02 11:31:25;;;;;;;6.57;2.00;;;14.40;99.90;;;;;;5041466;28;20197;-74
2022/11/02 11:33:55;;;;;;;13.90;2.60;;;14.40;99.90;;;;;;5045089;28;20225;-75
2022/11/02 11:36:31;;;;;;;7.67;2.23;;;14.50;99.90;;;;;;5029488;28;20256;-73
2022/11/02 11:39:06;;;;;;;9.93;2.07;;;14.50;99.90;;;;;;5046406;28;20254;-71
2022/11/02 11:41:38;;;;;;;10.43;1.97;;;14.60;99.90;;;;;;5043316;28;20272;-72
2022/11/02 11:44:12;;;;;;;7.77;1.83;;;14.50;99.90;;;;;;5049876;28;20618;-73
2022/11/02 11:46:43;;;;;;;12.67;2.33;;;14.50;99.90;;;;;;5044489;28;20654;-73
2022/11/02 11:49:23;;;;;;;7.67;1.73;;;14.60;99.90;;;;;;5025777;28;20208;-74
2022/11/02 11:52:17;;;;;;;6.57;1.63;;;14.60;99.90;;;;;;5043257;28;20574;-72
2022/11/02 11:54:52;;;;;;;11.30;2.10;;;14.60;99.90;;;;;;5023994;28;20803;-73
2022/11/02 11:57:24;;;;;;;7.83;1.53;;;14.60;99.90;;;;;;5043597;28;20239;-73
2022/11/02 11:59:54;;;;;;;11.83;2.23;;;14.70;99.90;;;;;;5054549;28;20642;-72
2022/11/02 12:02:24;;;;;;;10.80;2.07;;;14.80;99.90;;;;;;5036153;28;20467;-71
2022/11/02 12:04:58;;;;;;;8.07;2.20;;;14.80;99.90;;;;;;5041966;28;20512;-72
2022/11/02 12:07:59;;;;;;;9.87;2.50;;;14.90;99.90;;;;;;5048763;28;20614;-73
2022/11/02 12:10:55;;;;;;;9.37;1.57;;;15.10;99.90;;;;;;5024277;28;20215;-72
2022/11/02 12:13:43;;;;;;;7.57;2.10;;;15.10;99.90;;;;;;5049085;28;20243;-73
2022/11/02 12:16:31;;;;;;;8.57;1.88;;;15.30;99.90;;;;;;5041278;28;20346;-71
2022/11/02 12:19:11;;;;;;;11.13;2.00;;;15.30;99.90;;;;;;5047082;28;20282;-72
2022/11/02 12:21:49;;;;;;;11.23;2.73;;;15.30;99.90;;;;;;5046205;28;20220;-71
2022/11/02 12:24:51;;;;;;;11.32;1.77;;;15.40;99.90;;;;;;5051466;28;20204;-72
2022/11/02 12:27:42;;;;;;;7.73;1.80;;;15.40;99.90;;;;;;5050188;28;20262;-72
2022/11/02 12:30:13;;;;;;;9.47;2.03;;;15.30;99.90;;;;;;5031115;28;20255;-73
2022/11/02 12:33:14;;;;;;;11.37;2.30;;;15.20;99.90;;;;;;5045031;28;20300;-71
2022/11/02 12:35:53;;;;;;;8.50;2.07;;;15.20;99.90;;;;;;5043629;28;20347;-72
2022/11/02 12:38:33;;;;;;;6.97;2.33;;;15.20;99.90;;;;;;5043496;28;20217;-68
2022/11/02 12:41:31;;;;;;;8.53;1.90;;;15.20;99.90;;;;;;5047393;28;20217;-70
2022/11/02 12:44:32;;;;;;;9.13;1.77;;;15.20;99.90;;;;;;5042670;28;20253;-71
2022/11/02 12:47:20;;;;;;;5.55;1.88;;;15.20;99.90;;;;;;5032281;28;20308;-71
2022/11/02 12:49:59;;;;;;;5.60;2.20;;;15.20;99.90;;;;;;5045052;28;20197;-72
2022/11/02 12:52:50;;;;;;;12.07;2.60;;;15.30;99.90;;;;;;5024443;28;20303;-69
2022/11/02 12:55:21;;;;;;;9.25;2.10;;;15.40;99.90;;;;;;5041287;28;20253;-71
2022/11/02 12:57:51;;;;;;;9.07;1.92;;;15.40;99.90;;;;;;5026064;28;20205;-72
2022/11/02 13:00:21;;;;;;;6.57;1.80;;;15.40;99.90;;;;;;5042834;28;20212;-71
2022/11/02 13:03:03;;;;;;;7.73;1.90;;;15.40;99.90;;;;;;5045027;28;20211;-72
2022/11/02 13:05:39;;;;;;;5.80;1.83;;;15.30;99.90;;;;;;5045822;28;20213;-71
2022/11/02 13:08:23;;;;;;;13.50;2.38;;;15.30;99.90;;;;;;5043233;28;20220;-69
2022/11/02 13:11:04;;;;;;;9.70;2.50;;;15.20;99.90;;;;;;5048452;28;20344;-70
2022/11/02 13:13:39;;;;;;;11.00;2.35;;;15.20;99.90;;;;;;5045414;28;20212;-70
2022/11/02 13:16:09;;;;;;;9.60;2.00;;;15.20;99.90;;;;;;5030115;28;20719;-70
2022/11/02 13:18:49;;;;;;;10.70;1.97;;;15.20;99.90;;;;;;5048714;28;20588;-70
2022/11/02 13:21:35;;;;;;;7.57;1.97;;;15.20;99.90;;;;;;5043626;28;20685;-72
2022/11/02 13:24:18;;;;;;;6.63;1.63;;;15.30;99.90;;;;;;5043025;28;20242;-72
2022/11/02 13:26:47;;;;;;;6.37;1.77;;;15.30;99.90;;;;;;5047567;28;20236;-71